Time;durP1;ratioP1;P1;durP2;ratioP2;P2;SDS_P1;SDS_P2;PMS_P1;PMS_P2;Temp;Humidity;BMP_temperature;BMP_pressure;BME280_temperature;BME280_humidity;BME280_pressure;Samples;Min_cycle;Max_cycle;Signal;HPM_P1;HPM_P2
2021/07/10 00:00:56;;;;;;;6.68;1.23;;;;;;;;;;5113565;28;20483;-73
2021/07/10 00:03:22;;;;;;;5.80;1.27;;;;;;;;;;5113332;28;20015;-73
2021/07/10 00:05:48;;;;;;;3.72;1.20;;;;;;;;;;5113576;28;20058;-73
2021/07/10 00:08:14;;;;;;;3.70;1.20;;;;;;;;;;5113645;28;20031;-73
2021/07/10 00:10:41;;;;;;;4.85;1.23;;;;;;;;;;5113669;28;20016;-73
2021/07/10 00:13:07;;;;;;;5.72;1.55;;;;;;;;;;5113258;28;20123;-73
2021/07/10 00:15:33;;;;;;;2.10;1.20;;;;;;;;;;5113123;28;20051;-74
2021/07/10 00:17:59;;;;;;;3.78;1.10;;;;;;;;;;5113132;28;20038;-74
2021/07/10 00:20:25;;;;;;;2.00;1.08;;;;;;;;;;5113549;28;20024;-73
2021/07/10 00:22:51;;;;;;;1.77;1.00;;;;;;;;;;5113110;28;20539;-73
2021/07/10 00:25:18;;;;;;;2.95;1.13;;;;;;;;;;5112784;28;20098;-73
2021/07/10 00:27:45;;;;;;;5.32;1.40;;;;;;;;;;5112890;28;20023;-73
2021/07/10 00:30:12;;;;;;;6.03;1.23;;;;;;;;;;5113097;28;20012;-73
2021/07/10 00:32:38;;;;;;;3.20;1.20;;;;;;;;;;5113282;28;20039;-72
2021/07/10 00:35:07;;;;;;;4.35;1.10;;;24.30;61.40;;;;;;5113235;28;20031;-71
2021/07/10 00:37:33;;;;;;;5.05;1.15;;;23.80;65.30;;;;;;5112749;28;20155;-73
2021/07/10 00:39:59;;;;;;;2.28;1.20;;;23.80;64.60;;;;;;5113687;28;20120;-73
2021/07/10 00:42:24;;;;;;;4.28;1.40;;;23.80;64.80;;;;;;5113121;28;20034;-73
2021/07/10 00:44:50;;;;;;;3.35;1.30;;;23.80;64.40;;;;;;5112971;28;20020;-72
2021/07/10 00:47:17;;;;;;;7.13;1.60;;;23.80;63.90;;;;;;5112399;28;20525;-73
2021/07/10 00:49:45;;;;;;;6.45;1.50;;;23.70;63.50;;;;;;5112920;28;20081;-72
2021/07/10 00:52:11;;;;;;;4.20;1.75;;;23.80;63.20;;;;;;5112784;28;20038;-73
2021/07/10 00:54:37;;;;;;;4.00;1.50;;;23.80;62.50;;;;;;5112323;28;20387;-72
2021/07/10 00:57:09;;;;;;;3.78;1.38;;;23.80;62.00;;;;;;5110295;28;20027;-73
2021/07/10 00:59:37;;;;;;;3.90;1.55;;;23.80;62.70;;;;;;5110412;28;20070;-74
2021/07/10 01:02:03;;;;;;;3.63;1.38;;;23.80;61.90;;;;;;5110257;28;20069;-73
2021/07/10 01:04:29;;;;;;;8.00;1.80;;;23.80;61.80;;;;;;5111655;28;20024;-73
2021/07/10 01:06:55;;;;;;;2.97;1.70;;;23.80;61.60;;;;;;5112208;28;20026;-73
2021/07/10 01:09:20;;;;;;;5.22;1.42;;;23.80;61.70;;;;;;5111523;28;20468;-73
2021/07/10 01:11:46;;;;;;;1.77;1.20;;;23.80;61.50;;;;;;5112117;28;20035;-73
2021/07/10 01:14:12;;;;;;;2.72;1.50;;;23.80;61.30;;;;;;5115198;28;20102;-73
2021/07/10 01:16:38;;;;;;;2.83;1.50;;;23.80;61.70;;;;;;5116472;28;20135;-72
2021/07/10 01:19:07;;;;;;;4.13;1.73;;;23.80;62.20;;;;;;5116251;28;20032;-72
2021/07/10 01:21:32;;;;;;;3.58;1.50;;;23.80;61.80;;;;;;5116210;28;20023;-73
2021/07/10 01:23:58;;;;;;;3.00;1.40;;;23.80;61.60;;;;;;5115843;28;20153;-73
2021/07/10 01:26:23;;;;;;;3.55;1.40;;;23.80;61.60;;;;;;5116316;28;20106;-74
2021/07/10 01:28:49;;;;;;;3.90;1.40;;;23.80;61.50;;;;;;5116341;28;20054;-73
2021/07/10 01:31:18;;;;;;;4.18;1.58;;;23.80;61.40;;;;;;5116739;28;20034;-73
2021/07/10 01:33:43;;;;;;;3.03;1.65;;;23.90;61.20;;;;;;5115914;28;20030;-72
2021/07/10 01:36:09;;;;;;;5.35;1.70;;;23.80;61.20;;;;;;5115734;28;20481;-73
2021/07/10 01:38:35;;;;;;;4.03;1.50;;;23.90;61.40;;;;;;5115354;28;20023;-73
2021/07/10 01:41:00;;;;;;;4.28;1.70;;;23.90;61.40;;;;;;5115548;28;20031;-71
2021/07/10 01:43:26;;;;;;;4.63;1.75;;;;;;;;;;5115666;28;20511;-72
2021/07/10 01:45:55;;;;;;;2.47;1.42;;;;;;;;;;5116062;28;20016;-73
2021/07/10 01:48:21;;;;;;;2.08;1.50;;;;;;;;;;5115804;28;20059;-73
2021/07/10 01:50:47;;;;;;;3.38;1.60;;;;;;;;;;5115891;28;20019;-73
2021/07/10 01:53:14;;;;;;;5.53;1.58;;;;;;;;;;5115534;28;20503;-73
2021/07/10 01:55:43;;;;;;;4.03;1.55;;;;;;;;;;5116126;28;20110;-72
2021/07/10 01:58:10;;;;;;;6.20;1.65;;;;;;;;;;5115701;28;20028;-73
2021/07/10 02:00:38;;;;;;;4.07;1.30;;;;;;;;;;5115156;28;20031;-72
2021/07/10 02:03:04;;;;;;;4.38;1.33;;;;;;;;;;5115707;28;20395;-72
2021/07/10 02:05:30;;;;;;;3.40;1.40;;;;;;;;;;5115158;28;20028;-74
2021/07/10 02:08:00;;;;;;;6.78;1.40;;;;;;;;;;5115064;28;20463;-74
2021/07/10 02:10:27;;;;;;;2.92;1.52;;;;;;;;;;5115784;28;20023;-73
2021/07/10 02:12:56;;;;;;;3.03;1.50;;;;;;;;;;5115606;28;20079;-74
2021/07/10 02:15:23;;;;;;;3.88;1.45;;;;;;;;;;5115640;28;20521;-72
2021/07/10 02:17:49;;;;;;;2.42;1.48;;;;;;;;;;5115414;28;20081;-73
2021/07/10 02:20:16;;;;;;;2.40;1.65;;;;;;;;;;5115330;28;20097;-73
2021/07/10 02:22:43;;;;;;;4.65;1.65;;;;;;;;;;5115080;28;20047;-73
2021/07/10 02:25:11;;;;;;;2.60;1.58;;;;;;;;;;5114638;28;20031;-73
2021/07/10 02:27:37;;;;;;;5.57;1.40;;;;;;;;;;5115434;28;20471;-72
2021/07/10 02:30:07;;;;;;;5.47;1.58;;;;;;;;;;5115514;28;20068;-72
2021/07/10 02:32:33;;;;;;;2.53;1.50;;;;;;;;;;5115295;28;20035;-74
2021/07/10 02:34:59;;;;;;;4.78;1.95;;;;;;;;;;5115226;28;20035;-73
2021/07/10 02:37:26;;;;;;;2.90;1.40;;;;;;;;;;5114971;28;20015;-72
2021/07/10 02:39:52;;;;;;;6.10;2.35;;;;;;;;;;5114668;28;20047;-73
2021/07/10 02:42:19;;;;;;;4.40;1.50;;;;;;;;;;5115115;28;20020;-72
2021/07/10 02:44:45;;;;;;;3.20;1.70;;;;;;;;;;5114937;28;20067;-73
2021/07/10 02:47:11;;;;;;;5.72;1.98;;;;;;;;;;5114503;28;20491;-73
2021/07/10 02:49:37;;;;;;;5.45;1.58;;;;;;;;;;5115227;28;20482;-73
2021/07/10 02:52:07;;;;;;;5.50;1.80;;;;;;;;;;5114848;28;20028;-74
2021/07/10 02:54:33;;;;;;;3.22;1.85;;;;;;;;;;5114775;28;20032;-73
2021/07/10 02:56:59;;;;;;;1.92;1.60;;;;;;;;;;5114603;28;20034;-73
2021/07/10 02:59:28;;;;;;;3.92;1.80;;;;;;;;;;5115497;28;20023;-72
2021/07/10 03:01:54;;;;;;;4.88;1.80;;;;;;;;;;5114577;28;20028;-73
2021/07/10 03:04:20;;;;;;;8.27;1.60;;;;;;;;;;5114655;28;20102;-74
2021/07/10 03:06:46;;;;;;;3.67;1.55;;;;;;;;;;5114620;28;20452;-73
2021/07/10 03:09:12;;;;;;;4.95;1.80;;;;;;;;;;5114698;28;20102;-73
2021/07/10 03:11:38;;;;;;;6.10;1.60;;;;;;;;;;5114708;28;20118;-73
2021/07/10 03:14:04;;;;;;;2.75;1.58;;;;;;;;;;5114596;28;20015;-73
2021/07/10 03:16:30;;;;;;;4.72;1.67;;;;;;;;;;5114107;28;20056;-73
2021/07/10 03:18:56;;;;;;;12.48;2.00;;;;;;;;;;5114177;28;20016;-73
2021/07/10 03:21:22;;;;;;;4.32;1.60;;;;;;;;;;5114195;28;20028;-73
2021/07/10 03:23:48;;;;;;;2.38;1.60;;;;;;;;;;5114174;28;20114;-73
2021/07/10 03:26:14;;;;;;;6.00;1.70;;;;;;;;;;5114199;28;20055;-73
2021/07/10 03:28:40;;;;;;;3.35;1.60;;;;;;;;;;5114476;28;20109;-72
2021/07/10 03:31:07;;;;;;;4.18;1.50;;;;;;;;;;5113836;28;20392;-73
2021/07/10 03:33:35;;;;;;;3.70;2.15;;;;;;;;;;5113719;28;20103;-72
2021/07/10 03:36:02;;;;;;;4.88;1.60;;;;;;;;;;5114024;28;20050;-73
2021/07/10 03:38:28;;;;;;;2.83;1.60;;;;;;;;;;5114003;28;20104;-73
2021/07/10 03:40:54;;;;;;;5.50;1.80;;;;;;;;;;5114391;28;20026;-73
2021/07/10 03:43:20;;;;;;;5.60;1.63;;;;;;;;;;5113386;28;20024;-74
2021/07/10 03:45:47;;;;;;;2.88;1.50;;;;;;;;;;5113973;28;20031;-73
2021/07/10 03:48:13;;;;;;;4.95;1.75;;;;;;;;;;5113825;28;20483;-73
2021/07/10 03:50:39;;;;;;;5.45;1.90;;;;;;;;;;5113599;28;20376;-73
2021/07/10 03:53:12;;;;;;;3.15;1.77;;;;;;;;;;5113020;28;20055;-73
2021/07/10 03:55:38;;;;;;;5.07;1.52;;;;;;;;;;5113151;28;20051;-73
2021/07/10 03:58:05;;;;;;;5.88;1.60;;;;;;;;;;5113491;28;20549;-73
2021/07/10 04:00:33;;;;;;;2.92;1.60;;;;;;;;;;5113046;28;20027;-73
2021/07/10 04:03:00;;;;;;;7.95;1.67;;;;;;;;;;5113002;28;20068;-73
2021/07/10 04:05:26;;;;;;;3.10;1.48;;;;;;;;;;5113153;28;20024;-73
2021/07/10 04:07:52;;;;;;;2.72;1.33;;;;;;;;;;5113543;28;20019;-74
2021/07/10 04:10:18;;;;;;;1.65;1.30;;;;;;;;;;5113764;28;20024;-73
2021/07/10 04:12:45;;;;;;;2.13;1.40;;;;;;;;;;5113369;28;20064;-72
2021/07/10 04:15:12;;;;;;;3.70;1.52;;;;;;;;;;5113269;28;20047;-73
2021/07/10 04:17:38;;;;;;;5.70;1.33;;;;;;;;;;5113363;28;20028;-73
2021/07/10 04:20:05;;;;;;;2.03;1.30;;;;;;;;;;5113186;28;20487;-73
2021/07/10 04:22:31;;;;;;;2.55;1.50;;;;;;;;;;5113424;28;20035;-74
2021/07/10 04:24:57;;;;;;;2.17;1.23;;;;;;;;;;5113180;28;20020;-73
2021/07/10 04:27:23;;;;;;;5.78;1.27;;;;;;;;;;5112875;28;20059;-73
2021/07/10 04:29:49;;;;;;;5.20;1.55;;;;;;;;;;5113032;28;20027;-73
2021/07/10 04:32:16;;;;;;;2.75;1.67;;;;;;;;;;5113387;28;20184;-78
2021/07/10 04:34:42;;;;;;;2.33;1.52;;;;;;;;;;5112873;28;20096;-71
2021/07/10 04:37:08;;;;;;;3.97;1.52;;;;;;;;;;5112759;28;20106;-71
2021/07/10 04:39:34;;;;;;;4.93;1.90;;;;;;;;;;5112893;28;20070;-71
2021/07/10 04:42:00;;;;;;;3.92;1.98;;;;;;;;;;5112898;28;20019;-71
2021/07/10 04:44:27;;;;;;;6.82;2.00;;;;;;;;;;5112049;28;20055;-71
2021/07/10 04:46:53;;;;;;;3.45;1.55;;;;;;;;;;5112861;28;20020;-71
2021/07/10 04:49:19;;;;;;;7.25;1.95;;;;;;;;;;5113070;28;20476;-70
2021/07/10 04:51:45;;;;;;;2.65;1.63;;;;;;;;;;5113197;28;20553;-72
2021/07/10 04:54:11;;;;;;;8.25;1.92;;;;;;;;;;5112836;28;20024;-71
2021/07/10 04:56:37;;;;;;;10.27;1.98;;;;;;;;;;5113133;28;20042;-72
2021/07/10 04:59:03;;;;;;;4.90;2.10;;;;;;;;;;5112816;28;20047;-71
2021/07/10 05:01:30;;;;;;;7.43;1.90;;;;;;;;;;5113127;28;20020;-71
2021/07/10 05:03:56;;;;;;;3.50;1.80;;;;;;;;;;5112835;28;20059;-71
2021/07/10 05:06:22;;;;;;;7.82;1.60;;;;;;;;;;5113117;28;20020;-71
2021/07/10 05:08:48;;;;;;;6.68;1.90;;;;;;;;;;5113050;28;20039;-71
2021/07/10 05:11:14;;;;;;;5.82;1.90;;;;;;;;;;5113292;28;20027;-71
2021/07/10 05:13:40;;;;;;;5.88;1.80;;;;;;;;;;5113043;28;20039;-72
2021/07/10 05:16:06;;;;;;;3.50;1.67;;;;;;;;;;5112694;28;20047;-72
2021/07/10 05:18:33;;;;;;;3.75;1.50;;;;;;;;;;5112808;28;20107;-72
2021/07/10 05:20:59;;;;;;;2.97;1.60;;;;;;;;;;5112829;28;20024;-72
2021/07/10 05:23:25;;;;;;;2.65;1.40;;;;;;;;;;5112843;28;20027;-72
2021/07/10 05:25:51;;;;;;;2.65;1.05;;;;;;;;;;5112698;28;20028;-72
2021/07/10 05:28:17;;;;;;;4.75;1.33;;;;;;;;;;5111784;28;20356;-71
2021/07/10 05:30:43;;;;;;;3.97;1.10;;;;;;;;;;5112698;28;20450;-72
2021/07/10 05:33:11;;;;;;;4.45;1.23;;;;;;;;;;5112164;28;20063;-71
2021/07/10 05:35:38;;;;;;;1.85;1.25;;;23.80;61.20;;;;;;5112778;28;20491;-70
2021/07/10 05:38:03;;;;;;;2.17;1.15;;;24.10;60.80;;;;;;5112462;28;20034;-69
2021/07/10 05:40:29;;;;;;;3.15;1.00;;;24.10;60.60;;;;;;5112978;28;20399;-70
2021/07/10 05:42:55;;;;;;;3.15;1.10;;;24.20;60.30;;;;;;5112757;28;20020;-68
2021/07/10 05:45:21;;;;;;;4.78;1.25;;;24.20;59.60;;;;;;5112454;28;20023;-68
2021/07/10 05:47:47;;;;;;;5.18;1.40;;;24.20;59.00;;;;;;5111712;28;20032;-68
2021/07/10 05:50:13;;;;;;;3.00;1.10;;;24.30;58.50;;;;;;5112179;28;20036;-68
2021/07/10 05:52:40;;;;;;;3.28;1.13;;;24.30;58.30;;;;;;5112659;28;20049;-69
2021/07/10 05:55:07;;;;;;;2.67;0.90;;;24.30;58.20;;;;;;5113122;28;20357;-69
2021/07/10 05:57:33;;;;;;;5.75;1.75;;;24.40;58.00;;;;;;5112678;28;20031;-70
2021/07/10 05:59:59;;;;;;;3.03;1.20;;;24.40;58.20;;;;;;5116355;28;20494;-70
2021/07/10 06:02:25;;;;;;;2.30;1.00;;;24.50;58.20;;;;;;5116785;28;20023;-69
2021/07/10 06:04:50;;;;;;;5.70;1.13;;;24.50;58.10;;;;;;5116272;28;20378;-70
2021/07/10 06:07:16;;;;;;;3.75;0.90;;;24.50;57.90;;;;;;5116243;28;20023;-70
2021/07/10 06:09:42;;;;;;;3.60;1.00;;;24.60;57.80;;;;;;5116140;28;20023;-71
2021/07/10 06:12:08;;;;;;;4.68;0.93;;;24.60;57.60;;;;;;5116200;28;20085;-70
2021/07/10 06:14:34;;;;;;;6.10;0.95;;;24.70;57.20;;;;;;5115893;28;20028;-70
2021/07/10 06:17:00;;;;;;;5.50;1.08;;;24.60;56.90;;;;;;5114443;28;20035;-69
2021/07/10 06:19:26;;;;;;;1.45;1.02;;;24.70;56.60;;;;;;5114417;28;20027;-69
2021/07/10 06:21:55;;;;;;;1.80;0.90;;;24.80;56.50;;;;;;5114856;28;20380;-69
2021/07/10 06:24:20;;;;;;;2.17;0.98;;;24.80;56.70;;;;;;5115200;28;20464;-69
2021/07/10 06:26:46;;;;;;;1.75;0.90;;;24.90;56.50;;;;;;5115628;28;20038;-69
2021/07/10 06:29:12;;;;;;;1.02;0.93;;;24.90;56.50;;;;;;5115722;28;20024;-69
2021/07/10 06:31:38;;;;;;;5.88;1.10;;;25.00;56.50;;;;;;5115555;28;20035;-69
2021/07/10 06:34:04;;;;;;;4.28;1.13;;;25.00;56.70;;;;;;5115719;28;20372;-69
2021/07/10 06:36:32;;;;;;;4.30;0.95;;;25.00;57.10;;;;;;5115817;28;20488;-69
2021/07/10 06:38:57;;;;;;;3.30;1.10;;;25.00;56.50;;;;;;5115874;28;20110;-69
2021/07/10 06:41:23;;;;;;;3.22;1.08;;;25.10;56.30;;;;;;5115978;28;20099;-69
2021/07/10 06:43:49;;;;;;;3.28;1.10;;;25.10;56.20;;;;;;5116431;28;20027;-69
2021/07/10 06:46:14;;;;;;;1.30;0.70;;;25.10;55.80;;;;;;5115859;28;20166;-69
2021/07/10 06:48:40;;;;;;;2.55;0.98;;;25.20;55.60;;;;;;5115606;28;20537;-69
2021/07/10 06:51:06;;;;;;;5.82;0.95;;;25.20;55.40;;;;;;5115448;28;20467;-69
2021/07/10 06:53:33;;;;;;;4.13;1.00;;;25.30;54.50;;;;;;5115565;28;20391;-69
2021/07/10 06:55:59;;;;;;;3.75;1.00;;;25.30;54.10;;;;;;5115620;28;20024;-69
2021/07/10 06:58:25;;;;;;;7.63;1.00;;;25.40;54.30;;;;;;5115624;28;20364;-69
2021/07/10 07:00:51;;;;;;;1.75;0.70;;;25.40;54.30;;;;;;5115598;28;20416;-69
2021/07/10 07:03:17;;;;;;;6.45;1.00;;;;;;;;;;5115316;28;20035;-68
2021/07/10 07:05:45;;;;;;;2.58;1.00;;;;;;;;;;5115244;28;20073;-69
2021/07/10 07:08:11;;;;;;;1.38;0.80;;;;;;;;;;5115324;28;20024;-69
2021/07/10 07:10:38;;;;;;;3.25;1.00;;;;;;;;;;5114656;28;20047;-69
2021/07/10 07:13:04;;;;;;;3.25;1.00;;;;;;;;;;5115063;28;20061;-69
2021/07/10 07:15:30;;;;;;;1.65;1.00;;;;;;;;;;5114870;28;20123;-69
2021/07/10 07:17:56;;;;;;;4.20;0.98;;;;;;;;;;5115220;28;20395;-69
2021/07/10 07:20:22;;;;;;;2.42;0.90;;;;;;;;;;5115060;28;20038;-69
2021/07/10 07:22:49;;;;;;;4.68;1.02;;;;;;;;;;5115134;28;20020;-69
2021/07/10 07:25:16;;;;;;;2.60;0.85;;;;;;;;;;5114914;28;20442;-69
2021/07/10 07:27:43;;;;;;;3.42;0.90;;;;;;;;;;5114933;28;20078;-69
2021/07/10 07:30:10;;;;;;;3.42;0.90;;;;;;;;;;5114912;28;20459;-69
2021/07/10 07:32:36;;;;;;;2.78;0.80;;;;;;;;;;5114470;28;20479;-69
2021/07/10 07:35:04;;;;;;;8.15;0.90;;;;;;;;;;5114732;28;20030;-69
2021/07/10 07:37:30;;;;;;;2.78;0.70;;;;;;;;;;5114653;28;20073;-69
2021/07/10 07:39:56;;;;;;;8.40;0.90;;;;;;;;;;5114762;28;20020;-69
2021/07/10 07:42:22;;;;;;;3.83;1.33;;;;;;;;;;5114687;28;20088;-69
2021/07/10 07:44:48;;;;;;;3.10;1.10;;;;;;;;;;5114343;28;20023;-69
2021/07/10 07:47:16;;;;;;;5.55;0.90;;;;;;;;;;5114531;28;20033;-70
2021/07/10 07:49:42;;;;;;;5.65;0.80;;;;;;;;;;5114437;28;20072;-69
2021/07/10 07:52:08;;;;;;;3.85;0.95;;;;;;;;;;5114134;28;20463;-68
2021/07/10 07:54:35;;;;;;;3.58;1.30;;;;;;;;;;5114630;28;20404;-69
2021/07/10 07:57:01;;;;;;;4.40;0.93;;;;;;;;;;5114289;28;20028;-69
2021/07/10 07:59:27;;;;;;;5.28;0.90;;;;;;;;;;5114399;28;20582;-69
2021/07/10 08:01:53;;;;;;;2.30;1.00;;;;;;;;;;5114381;28;20038;-69
2021/07/10 08:04:20;;;;;;;2.92;1.00;;;;;;;;;;5113989;28;20016;-69
2021/07/10 08:06:46;;;;;;;2.13;0.93;;;;;;;;;;5114217;28;20028;-69
2021/07/10 08:09:12;;;;;;;2.63;0.80;;;;;;;;;;5114232;28;20024;-69
2021/07/10 08:11:38;;;;;;;7.65;0.90;;;;;;;;;;5113958;28;20080;-68
2021/07/10 08:14:05;;;;;;;1.23;0.88;;;;;;;;;;5113945;28;20430;-69
2021/07/10 08:16:31;;;;;;;3.15;0.75;;;;;;;;;;5113698;28;20079;-68
2021/07/10 08:18:57;;;;;;;5.28;1.00;;;;;;;;;;5114268;28;20425;-69
2021/07/10 08:21:26;;;;;;;4.47;1.00;;;;;;;;;;5113268;28;20023;-69
2021/07/10 08:23:53;;;;;;;3.53;0.85;;;;;;;;;;5113554;28;20024;-69
2021/07/10 08:26:19;;;;;;;4.72;0.85;;;;;;;;;;5114008;28;20024;-69
2021/07/10 08:28:45;;;;;;;1.55;0.80;;;;;;;;;;5113821;28;20076;-69
2021/07/10 08:31:11;;;;;;;2.83;1.00;;;;;;;;;;5113869;28;20020;-70
2021/07/10 08:33:38;;;;;;;3.05;0.88;;;;;;;;;;5114223;28;20035;-69
2021/07/10 08:36:04;;;;;;;3.47;1.10;;;;;;;;;;5114085;28;20042;-69
2021/07/10 08:38:30;;;;;;;4.78;1.02;;;;;;;;;;5113779;28;20027;-69
2021/07/10 08:40:56;;;;;;;1.90;0.93;;;;;;;;;;5113720;28;20024;-69
2021/07/10 08:43:22;;;;;;;4.13;0.93;;;;;;;;;;5113587;28;20026;-69
2021/07/10 08:45:49;;;;;;;4.82;1.13;;;;;;;;;;5113573;28;20035;-69
2021/07/10 08:48:16;;;;;;;1.77;0.98;;;;;;;;;;5113525;28;20472;-69
2021/07/10 08:50:43;;;;;;;8.02;1.05;;;;;;;;;;5113630;28;20103;-69
2021/07/10 08:53:11;;;;;;;4.15;0.80;;;;;;;;;;5113395;28;20110;-69
2021/07/10 08:55:37;;;;;;;5.20;0.95;;;;;;;;;;5113759;28;20077;-69
2021/07/10 08:58:05;;;;;;;6.03;1.05;;;;;;;;;;5113206;28;20491;-69
2021/07/10 09:00:41;;;;;;;2.03;0.90;;;;;;;;;;5113646;28;20024;-69
2021/07/10 09:03:08;;;;;;;3.50;0.85;;;;;;;;;;5113424;28;20032;-69
2021/07/10 09:05:34;;;;;;;4.57;0.88;;;;;;;;;;5113688;28;20383;-69
2021/07/10 09:08:12;;;;;;;3.65;0.60;;;;;;;;;;5113577;28;20480;-69
2021/07/10 09:10:39;;;;;;;6.05;0.90;;;;;;;;;;5113408;28;20368;-68
2021/07/10 09:13:05;;;;;;;3.58;0.70;;;;;;;;;;5113075;28;20028;-69
2021/07/10 09:15:32;;;;;;;7.22;0.70;;;;;;;;;;5113240;28;20126;-69
2021/07/10 09:17:59;;;;;;;3.10;0.80;;;;;;;;;;5113126;28;20492;-69
2021/07/10 09:20:26;;;;;;;2.67;0.82;;;;;;;;;;5113508;28;20079;-68
2021/07/10 09:22:52;;;;;;;5.70;0.82;;;;;;;;;;5112944;28;20028;-69
2021/07/10 09:25:23;;;;;;;3.10;0.90;;;;;;;;;;5113238;28;20026;-69
2021/07/10 09:27:50;;;;;;;5.50;0.80;;;;;;;;;;5113370;28;20036;-69
2021/07/10 09:30:17;;;;;;;3.58;0.80;;;;;;;;;;5113286;28;20028;-69
2021/07/10 09:32:43;;;;;;;4.45;0.73;;;;;;;;;;5113542;28;20092;-69
2021/07/10 09:35:10;;;;;;;3.50;0.88;;;;;;;;;;5117194;28;20414;-69
2021/07/10 09:37:38;;;;;;;5.50;0.80;;;;;;;;;;5117125;28;20049;-69
2021/07/10 09:40:07;;;;;;;2.65;0.73;;;;;;;;;;5116979;28;20024;-69
2021/07/10 09:42:34;;;;;;;4.68;0.70;;;;;;;;;;5117001;28;20034;-69
2021/07/10 09:45:00;;;;;;;1.08;0.82;;;;;;;;;;5116761;28;20107;-69
2021/07/10 09:47:28;;;;;;;1.83;0.63;;;;;;;;;;5116591;28;20027;-69
2021/07/10 09:49:54;;;;;;;2.45;0.80;;;;;;;;;;5116862;28;20034;-69
2021/07/10 09:52:21;;;;;;;0.90;0.68;;;;;;;;;;5116825;28;20035;-69
2021/07/10 09:54:51;;;;;;;2.35;0.80;;;;;;;;;;5116918;28;20486;-69
2021/07/10 09:57:28;;;;;;;4.00;0.80;;;;;;;;;;5116865;28;20035;-69
2021/07/10 09:59:55;;;;;;;7.38;1.02;;;;;;;;;;5116287;28;20026;-69
2021/07/10 10:02:29;;;;;;;5.40;0.80;;;;;;;;;;5116563;28;20437;-68
2021/07/10 10:05:06;;;;;;;0.75;0.50;;;;;;;;;;5116423;28;20487;-69
2021/07/10 10:07:45;;;;;;;3.67;0.93;;;;;;;;;;5116507;28;20036;-69
2021/07/10 10:10:23;;;;;;;2.97;0.70;;;;;;;;;;5116550;28;20126;-69
2021/07/10 10:13:04;;;;;;;5.75;0.90;;;;;;;;;;5116020;28;20377;-68
2021/07/10 10:15:40;;;;;;;1.63;0.80;;;;;;;;;;5116268;28;20047;-70
2021/07/10 10:18:06;;;;;;;1.90;0.57;;;;;;;;;;5116499;28;20024;-69
2021/07/10 10:20:32;;;;;;;4.85;0.80;;;;;;;;;;5116359;28;20095;-69
2021/07/10 10:23:00;;;;;;;3.50;0.77;;;;;;;;;;5116086;28;20048;-69
2021/07/10 10:25:26;;;;;;;0.88;0.50;;;;;;;;;;5116074;28;20480;-69
2021/07/10 10:27:53;;;;;;;5.28;0.90;;;;;;;;;;5115836;28;20024;-69
2021/07/10 10:30:20;;;;;;;2.88;0.90;;;;;;;;;;5116079;28;20026;-69
2021/07/10 10:32:46;;;;;;;4.30;0.63;;;;;;;;;;5115889;28;20031;-69
2021/07/10 10:35:13;;;;;;;1.52;0.95;;;;;;;;;;5115946;28;20452;-69
2021/07/10 10:37:39;;;;;;;3.70;0.80;;;;;;;;;;5115558;28;20073;-69
2021/07/10 10:40:09;;;;;;;4.38;0.80;;;;;;;;;;5115866;28;20437;-69
2021/07/10 10:42:36;;;;;;;4.10;0.75;;;;;;;;;;5115891;28;20015;-69
2021/07/10 10:45:04;;;;;;;3.90;0.70;;;;;;;;;;5114664;28;20031;-69
2021/07/10 10:47:43;;;;;;;1.85;0.70;;;;;;;;;;5115767;28;20161;-69
2021/07/10 10:50:17;;;;;;;4.85;1.05;;;;;;;;;;5115529;28;20050;-69
2021/07/10 10:52:44;;;;;;;3.20;1.00;;;;;;;;;;5115334;28;20031;-69
2021/07/10 10:55:19;;;;;;;3.17;0.80;;;;;;;;;;5115851;28;20023;-69
2021/07/10 10:57:45;;;;;;;5.00;0.93;;;;;;;;;;5115372;28;20028;-70
2021/07/10 11:00:14;;;;;;;1.48;0.90;;;;;;;;;;5115339;28;20019;-69
2021/07/10 11:02:50;;;;;;;7.68;0.80;;;;;;;;;;5115313;28;20098;-69
2021/07/10 11:05:16;;;;;;;3.60;0.73;;;;;;;;;;5115485;28;20034;-68
2021/07/10 11:07:42;;;;;;;3.60;0.80;;;;;;;;;;5115374;28;20026;-69
2021/07/10 11:10:13;;;;;;;4.00;0.70;;;;;;;;;;5115392;28;20028;-69
2021/07/10 11:12:48;;;;;;;3.08;0.90;;;;;;;;;;5115199;28;20044;-68
2021/07/10 11:15:27;;;;;;;2.30;0.93;;;;;;;;;;5114833;28;20051;-68
2021/07/10 11:17:56;;;;;;;1.92;0.80;;;;;;;;;;5115122;28;20023;-69
2021/07/10 11:20:48;;;;;;;4.63;0.93;;;;;;;;;;5114852;28;20032;-69
2021/07/10 11:23:35;;;;;;;1.40;0.80;;;;;;;;;;5111819;28;20142;-69
2021/07/10 11:26:11;;;;;;;4.78;1.08;;;;;;;;;;5114786;28;20102;-69
2021/07/10 11:28:37;;;;;;;4.43;0.82;;;;;;;;;;5114610;28;20072;-69
2021/07/10 11:31:08;;;;;;;4.63;0.90;;;;;;;;;;5114878;28;20030;-69
2021/07/10 11:33:52;;;;;;;2.67;0.80;;;;;;;;;;5114853;28;20032;-68
2021/07/10 11:36:43;;;;;;;3.22;0.70;;;;;;;;;;5114875;28;20024;-69
2021/07/10 11:39:24;;;;;;;3.67;1.00;;;;;;;;;;5107126;28;20035;-69
2021/07/10 11:41:53;;;;;;;2.00;0.82;;;;;;;;;;5114664;28;20047;-69
2021/07/10 11:44:23;;;;;;;2.35;1.10;;;;;;;;;;5114116;28;20110;-69
2021/07/10 11:46:56;;;;;;;3.13;0.98;;;;;;;;;;5114364;28;20024;-70
2021/07/10 11:49:40;;;;;;;3.03;0.95;;;;;;;;;;5114381;28;20425;-70
2021/07/10 11:52:10;;;;;;;5.32;1.08;;;;;;;;;;5114318;28;20536;-69
2021/07/10 11:54:38;;;;;;;3.25;0.98;;;;;;;;;;5114376;28;20031;-69
2021/07/10 11:57:04;;;;;;;2.90;0.80;;;;;;;;;;5114076;28;20470;-69
2021/07/10 11:59:33;;;;;;;1.63;1.00;;;;;;;;;;5113151;28;20027;-69
2021/07/10 12:02:14;;;;;;;4.38;0.70;;;;;;;;;;5114495;28;20107;-69
2021/07/10 12:04:40;;;;;;;2.95;0.80;;;;;;;;;;5114493;28;20080;-69
2021/07/10 12:07:19;;;;;;;3.60;1.00;;;;;;;;;;5114148;28;20110;-69
2021/07/10 12:09:52;;;;;;;3.42;0.70;;;;;;;;;;5113987;28;20024;-68
2021/07/10 12:12:18;;;;;;;1.98;0.77;;;;;;;;;;5113883;28;20028;-68
2021/07/10 12:14:57;;;;;;;2.53;1.05;;;;;;;;;;5113628;28;20433;-69
2021/07/10 12:17:23;;;;;;;2.85;0.90;;;;;;;;;;5114064;28;20491;-69
2021/07/10 12:19:50;;;;;;;4.97;1.00;;;;;;;;;;5113909;28;20384;-69
2021/07/10 12:22:17;;;;;;;2.65;0.95;;;;;;;;;;5113982;28;20028;-69
2021/07/10 12:24:43;;;;;;;1.77;0.73;;;;;;;;;;5113800;28;20111;-69
2021/07/10 12:27:10;;;;;;;2.30;0.70;;;;;;;;;;5113789;28;20020;-69
2021/07/10 12:29:36;;;;;;;3.65;1.00;;;;;;;;;;5114099;28;20472;-69
2021/07/10 12:32:02;;;;;;;4.35;0.75;;;;;;;;;;5113768;28;20031;-69
2021/07/10 12:34:31;;;;;;;4.80;0.90;;;;;;;;;;5113744;28;20024;-69
2021/07/10 12:36:59;;;;;;;9.30;1.10;;;;;;;;;;5113740;28;20019;-69
2021/07/10 12:39:27;;;;;;;5.07;0.90;;;;;;;;;;5113737;28;20015;-69
2021/07/10 12:41:57;;;;;;;1.35;0.90;;;;;;;;;;5113571;28;20098;-69
2021/07/10 12:44:28;;;;;;;1.83;1.00;;;;;;;;;;5113642;28;20063;-69
2021/07/10 12:47:03;;;;;;;2.65;1.00;;;;;;;;;;5113668;28;20084;-69
2021/07/10 12:49:42;;;;;;;0.90;0.70;;;;;;;;;;5113726;28;20089;-69
2021/07/10 12:52:29;;;;;;;1.67;0.80;;;;;;;;;;5113681;28;20060;-69
2021/07/10 12:55:05;;;;;;;4.10;0.90;;;;;;;;;;5113312;28;20535;-69
2021/07/10 12:57:31;;;;;;;3.80;0.90;;;;;;;;;;5113604;28;20023;-69
2021/07/10 13:00:06;;;;;;;3.47;1.00;;;;;;;;;;5113464;28;20032;-69
2021/07/10 13:02:37;;;;;;;3.67;1.10;;;;;;;;;;5113298;28;20015;-69
2021/07/10 13:05:22;;;;;;;2.40;1.00;;;;;;;;;;5113547;28;20080;-69
2021/07/10 13:07:49;;;;;;;10.32;1.80;;;;;;;;;;5113692;28;20024;-69
2021/07/10 13:10:24;;;;;;;5.15;1.00;;;;;;;;;;5117408;28;20019;-69
2021/07/10 13:12:52;;;;;;;3.85;1.20;;;;;;;;;;5117356;28;20470;-69
2021/07/10 13:15:21;;;;;;;4.40;1.00;;;;;;;;;;5117292;28;20043;-69
2021/07/10 13:18:06;;;;;;;2.22;1.08;;;;;;;;;;5117238;28;20038;-69
2021/07/10 13:20:32;;;;;;;2.40;1.20;;;;;;;;;;5117281;28;20055;-69
2021/07/10 13:22:58;;;;;;;2.00;1.00;;;;;;;;;;5117176;28;20028;-69
2021/07/10 13:25:32;;;;;;;1.73;1.25;;;;;;;;;;5117234;28;20031;-69
2021/07/10 13:27:58;;;;;;;4.95;1.10;;;;;;;;;;5117291;28;20070;-69
2021/07/10 13:30:24;;;;;;;3.88;1.25;;;;;;;;;;5116152;28;20020;-69
2021/07/10 13:32:54;;;;;;;3.67;1.17;;;;;;;;;;5117274;28;20435;-69
2021/07/10 13:35:24;;;;;;;2.25;1.20;;;;;;;;;;5116896;28;20084;-69
2021/07/10 13:37:50;;;;;;;2.10;1.13;;;;;;;;;;5117115;28;20028;-69
2021/07/10 13:40:36;;;;;;;2.25;1.00;;;;;;;;;;5117018;28;20356;-69
2021/07/10 13:43:02;;;;;;;1.90;1.10;;;;;;;;;;5116933;28;20418;-69
2021/07/10 13:45:28;;;;;;;2.47;1.20;;;;;;;;;;5116554;28;20028;-69
2021/07/10 13:48:14;;;;;;;1.40;1.10;;;;;;;;;;5117048;28;20464;-69
2021/07/10 13:50:41;;;;;;;3.78;1.35;;;;;;;;;;5117157;28;20122;-69
2021/07/10 13:53:14;;;;;;;5.90;1.30;;;;;;;;;;5116780;28;20392;-69
2021/07/10 13:55:41;;;;;;;2.03;1.45;;;;;;;;;;5117035;28;20023;-69
2021/07/10 13:58:23;;;;;;;7.25;1.42;;;;;;;;;;5116866;28;20076;-70
2021/07/10 14:00:49;;;;;;;2.83;1.42;;;;;;;;;;5116407;28;20103;-69
2021/07/10 14:03:15;;;;;;;3.85;1.20;;;;;;;;;;5116531;28;20030;-69
2021/07/10 14:05:42;;;;;;;6.50;1.70;;;;;;;;;;5116450;28;20036;-69
2021/07/10 14:08:15;;;;;;;3.22;1.50;;;;;;;;;;5116464;28;20043;-69
2021/07/10 14:10:45;;;;;;;4.97;1.40;;;;;;;;;;5116525;28;20031;-69
2021/07/10 14:13:13;;;;;;;5.28;1.65;;;;;;;;;;5116049;28;20391;-69
2021/07/10 14:15:39;;;;;;;2.78;1.52;;;;;;;;;;5116028;28;20078;-69
2021/07/10 14:18:06;;;;;;;3.58;1.70;;;;;;;;;;5116232;28;20020;-68
2021/07/10 14:20:32;;;;;;;2.83;1.55;;;;;;;;;;5116122;28;20024;-69
2021/07/10 14:22:58;;;;;;;3.60;1.15;;;;;;;;;;5116153;28;20030;-69